sensor_id;sensor_type;location;lat;lon;timestamp;temperature;humidity
32698;DHT22;19087;51.062;3.754;2024-01-30T00:01:17;11.70;99.90
32698;DHT22;19087;51.062;3.754;2024-01-30T00:03:44;11.70;99.90
32698;DHT22;19087;51.062;3.754;2024-01-30T00:06:11;11.80;99.90
32698;DHT22;19087;51.062;3.754;2024-01-30T00:08:37;11.70;99.90
32698;DHT22;19087;51.062;3.754;2024-01-30T00:11:03;11.70;99.90
32698;DHT22;19087;51.062;3.754;2024-01-30T00:13:28;11.70;99.90
32698;DHT22;19087;51.062;3.754;2024-01-30T00:15:54;11.80;99.90
32698;DHT22;19087;51.062;3.754;2024-01-30T00:18:22;11.60;99.90
32698;DHT22;19087;51.062;3.754;2024-01-30T00:20:47;11.60;99.90
32698;DHT22;19087;51.062;3.754;2024-01-30T00:23:13;11.50;99.90
32698;DHT22;19087;51.062;3.754;2024-01-30T00:25:39;11.60;99.90
32698;DHT22;19087;51.062;3.754;2024-01-30T00:28:07;11.60;99.90
32698;DHT22;19087;51.062;3.754;2024-01-30T00:30:33;11.70;99.90
32698;DHT22;19087;51.062;3.754;2024-01-30T00:33:00;11.70;99.90
32698;DHT22;19087;51.062;3.754;2024-01-30T00:35:26;11.60;99.90
32698;DHT22;19087;51.062;3.754;2024-01-30T00:37:53;11.60;99.90
32698;DHT22;19087;51.062;3.754;2024-01-30T00:40:19;11.70;99.90
32698;DHT22;19087;51.062;3.754;2024-01-30T00:42:47;11.60;99.90
32698;DHT22;19087;51.062;3.754;2024-01-30T00:45:14;11.60;99.90
32698;DHT22;19087;51.062;3.754;2024-01-30T00:47:42;11.60;99.90
32698;DHT22;19087;51.062;3.754;2024-01-30T00:50:08;11.60;99.90
32698;DHT22;19087;51.062;3.754;2024-01-30T00:52:35;11.60;99.90
32698;DHT22;19087;51.062;3.754;2024-01-30T00:55:01;11.50;99.90
32698;DHT22;19087;51.062;3.754;2024-01-30T00:57:28;11.50;99.90
32698;DHT22;19087;51.062;3.754;2024-01-30T00:59:54;11.50;99.90
32698;DHT22;19087;51.062;3.754;2024-01-30T01:02:20;11.60;99.90
32698;DHT22;19087;51.062;3.754;2024-01-30T01:04:47;11.60;99.90
32698;DHT22;19087;51.062;3.754;2024-01-30T01:07:12;11.50;99.90
32698;DHT22;19087;51.062;3.754;2024-01-30T01:09:38;11.50;99.90
32698;DHT22;19087;51.062;3.754;2024-01-30T01:12:04;11.50;99.90
32698;DHT22;19087;51.062;3.754;2024-01-30T01:14:30;11.50;99.90
32698;DHT22;19087;51.062;3.754;2024-01-30T01:16:56;11.50;99.90
32698;DHT22;19087;51.062;3.754;2024-01-30T01:19:22;11.50;99.90
32698;DHT22;19087;51.062;3.754;2024-01-30T01:21:55;11.60;99.90
32698;DHT22;19087;51.062;3.754;2024-01-30T01:24:24;11.60;99.90
32698;DHT22;19087;51.062;3.754;2024-01-30T01:26:51;11.50;99.90
32698;DHT22;19087;51.062;3.754;2024-01-30T01:29:18;11.50;99.90
32698;DHT22;19087;51.062;3.754;2024-01-30T01:31:44;11.50;99.90
32698;DHT22;19087;51.062;3.754;2024-01-30T01:34:14;11.50;99.90
32698;DHT22;19087;51.062;3.754;2024-01-30T01:36:40;11.50;99.90
32698;DHT22;19087;51.062;3.754;2024-01-30T01:39:06;11.50;99.90
32698;DHT22;19087;51.062;3.754;2024-01-30T01:41:33;11.50;99.90
32698;DHT22;19087;51.062;3.754;2024-01-30T01:43:59;11.40;99.90
32698;DHT22;19087;51.062;3.754;2024-01-30T01:46:30;11.40;99.90
32698;DHT22;19087;51.062;3.754;2024-01-30T01:48:57;11.50;99.90
32698;DHT22;19087;51.062;3.754;2024-01-30T01:51:25;11.40;99.90
32698;DHT22;19087;51.062;3.754;2024-01-30T01:53:53;11.40;99.90
32698;DHT22;19087;51.062;3.754;2024-01-30T01:56:21;11.50;99.90
32698;DHT22;19087;51.062;3.754;2024-01-30T01:58:48;11.40;99.90
32698;DHT22;19087;51.062;3.754;2024-01-30T02:01:18;11.50;99.90
32698;DHT22;19087;51.062;3.754;2024-01-30T02:03:46;11.50;99.90
32698;DHT22;19087;51.062;3.754;2024-01-30T02:06:13;11.40;99.90
32698;DHT22;19087;51.062;3.754;2024-01-30T02:08:42;11.40;99.90
32698;DHT22;19087;51.062;3.754;2024-01-30T02:11:08;11.50;99.90
32698;DHT22;19087;51.062;3.754;2024-01-30T02:13:35;11.50;99.90
32698;DHT22;19087;51.062;3.754;2024-01-30T02:16:02;11.50;99.90
32698;DHT22;19087;51.062;3.754;2024-01-30T02:18:28;11.50;99.90
32698;DHT22;19087;51.062;3.754;2024-01-30T02:20:56;11.60;99.90
32698;DHT22;19087;51.062;3.754;2024-01-30T02:23:24;11.70;99.90
32698;DHT22;19087;51.062;3.754;2024-01-30T02:25:55;11.70;99.90
32698;DHT22;19087;51.062;3.754;2024-01-30T02:28:21;11.70;99.90
32698;DHT22;19087;51.062;3.754;2024-01-30T02:30:47;11.70;99.90
32698;DHT22;19087;51.062;3.754;2024-01-30T02:33:13;11.70;99.90
32698;DHT22;19087;51.062;3.754;2024-01-30T02:35:39;11.70;99.90
32698;DHT22;19087;51.062;3.754;2024-01-30T02:38:06;11.70;99.90
32698;DHT22;19087;51.062;3.754;2024-01-30T02:40:32;11.70;99.90
32698;DHT22;19087;51.062;3.754;2024-01-30T02:43:02;11.70;99.90
32698;DHT22;19087;51.062;3.754;2024-01-30T02:45:29;11.70;99.90
32698;DHT22;19087;51.062;3.754;2024-01-30T02:47:55;11.70;99.90
32698;DHT22;19087;51.062;3.754;2024-01-30T02:50:31;11.70;99.90
32698;DHT22;19087;51.062;3.754;2024-01-30T02:52:57;11.80;99.90
32698;DHT22;19087;51.062;3.754;2024-01-30T02:55:23;11.80;99.90
32698;DHT22;19087;51.062;3.754;2024-01-30T02:57:48;11.80;99.90
32698;DHT22;19087;51.062;3.754;2024-01-30T03:00:15;11.80;99.90
32698;DHT22;19087;51.062;3.754;2024-01-30T03:02:41;11.80;99.90
32698;DHT22;19087;51.062;3.754;2024-01-30T03:05:08;11.80;99.90
32698;DHT22;19087;51.062;3.754;2024-01-30T03:07:34;11.80;99.90
32698;DHT22;19087;51.062;3.754;2024-01-30T03:10:00;11.80;99.90
32698;DHT22;19087;51.062;3.754;2024-01-30T03:12:26;11.80;99.90
32698;DHT22;19087;51.062;3.754;2024-01-30T03:14:51;12.00;99.90
32698;DHT22;19087;51.062;3.754;2024-01-30T03:17:18;12.10;99.90
32698;DHT22;19087;51.062;3.754;2024-01-30T03:19:43;12.00;99.90
32698;DHT22;19087;51.062;3.754;2024-01-30T03:22:09;12.00;99.90
32698;DHT22;19087;51.062;3.754;2024-01-30T03:24:35;11.90;99.90
32698;DHT22;19087;51.062;3.754;2024-01-30T03:27:02;11.80;99.90
32698;DHT22;19087;51.062;3.754;2024-01-30T03:29:28;11.80;99.90
32698;DHT22;19087;51.062;3.754;2024-01-30T03:31:53;11.80;99.90
32698;DHT22;19087;51.062;3.754;2024-01-30T03:34:19;11.80;99.90
32698;DHT22;19087;51.062;3.754;2024-01-30T03:36:45;11.80;99.90
32698;DHT22;19087;51.062;3.754;2024-01-30T03:39:11;11.70;99.90
32698;DHT22;19087;51.062;3.754;2024-01-30T03:41:37;11.70;99.90
32698;DHT22;19087;51.062;3.754;2024-01-30T03:44:06;11.70;99.90
32698;DHT22;19087;51.062;3.754;2024-01-30T03:46:32;11.60;99.90
32698;DHT22;19087;51.062;3.754;2024-01-30T03:48:58;11.60;99.90
32698;DHT22;19087;51.062;3.754;2024-01-30T03:51:27;11.70;99.90
32698;DHT22;19087;51.062;3.754;2024-01-30T03:53:57;11.60;99.90
32698;DHT22;19087;51.062;3.754;2024-01-30T03:56:26;11.60;99.90
32698;DHT22;19087;51.062;3.754;2024-01-30T03:58:52;11.60;99.90
32698;DHT22;19087;51.062;3.754;2024-01-30T04:01:21;11.60;99.90
32698;DHT22;19087;51.062;3.754;2024-01-30T04:03:50;11.50;99.90
32698;DHT22;19087;51.062;3.754;2024-01-30T04:06:19;11.40;99.90
32698;DHT22;19087;51.062;3.754;2024-01-30T04:08:48;11.30;99.90
32698;DHT22;19087;51.062;3.754;2024-01-30T04:11:18;11.30;99.90
32698;DHT22;19087;51.062;3.754;2024-01-30T04:13:47;11.40;99.90
32698;DHT22;19087;51.062;3.754;2024-01-30T04:16:24;11.40;99.90
32698;DHT22;19087;51.062;3.754;2024-01-30T04:18:56;11.40;99.90
32698;DHT22;19087;51.062;3.754;2024-01-30T04:21:22;11.30;99.90
32698;DHT22;19087;51.062;3.754;2024-01-30T04:23:48;11.30;99.90
32698;DHT22;19087;51.062;3.754;2024-01-30T04:26:14;11.30;99.90
32698;DHT22;19087;51.062;3.754;2024-01-30T04:28:45;11.30;99.90
32698;DHT22;19087;51.062;3.754;2024-01-30T04:31:11;11.40;99.90
32698;DHT22;19087;51.062;3.754;2024-01-30T04:33:38;11.30;99.90
32698;DHT22;19087;51.062;3.754;2024-01-30T04:36:08;11.30;99.90
32698;DHT22;19087;51.062;3.754;2024-01-30T04:38:38;11.30;99.90
32698;DHT22;19087;51.062;3.754;2024-01-30T04:41:10;11.30;99.90
32698;DHT22;19087;51.062;3.754;2024-01-30T04:43:37;11.30;99.90
32698;DHT22;19087;51.062;3.754;2024-01-30T04:46:04;11.40;99.90
32698;DHT22;19087;51.062;3.754;2024-01-30T04:48:32;11.30;99.90
32698;DHT22;19087;51.062;3.754;2024-01-30T04:51:01;11.40;99.90
32698;DHT22;19087;51.062;3.754;2024-01-30T04:53:30;11.40;99.90
32698;DHT22;19087;51.062;3.754;2024-01-30T04:55:58;11.30;99.90
32698;DHT22;19087;51.062;3.754;2024-01-30T04:58:27;11.30;99.90
32698;DHT22;19087;51.062;3.754;2024-01-30T05:00:56;11.30;99.90
32698;DHT22;19087;51.062;3.754;2024-01-30T05:03:22;11.20;99.90
32698;DHT22;19087;51.062;3.754;2024-01-30T05:05:50;11.20;99.90
32698;DHT22;19087;51.062;3.754;2024-01-30T05:08:16;11.20;99.90
32698;DHT22;19087;51.062;3.754;2024-01-30T05:11:02;11.10;99.90
32698;DHT22;19087;51.062;3.754;2024-01-30T05:13:49;11.20;99.90
32698;DHT22;19087;51.062;3.754;2024-01-30T05:16:17;11.20;99.90
32698;DHT22;19087;51.062;3.754;2024-01-30T05:18:43;11.20;99.90
32698;DHT22;19087;51.062;3.754;2024-01-30T05:21:10;11.20;99.90
32698;DHT22;19087;51.062;3.754;2024-01-30T05:23:38;11.20;99.90
32698;DHT22;19087;51.062;3.754;2024-01-30T05:26:05;11.20;99.90
32698;DHT22;19087;51.062;3.754;2024-01-30T05:28:31;11.30;99.90
32698;DHT22;19087;51.062;3.754;2024-01-30T05:30:57;11.40;99.90
32698;DHT22;19087;51.062;3.754;2024-01-30T05:33:24;11.40;99.90
32698;DHT22;19087;51.062;3.754;2024-01-30T05:35:51;11.40;99.90
32698;DHT22;19087;51.062;3.754;2024-01-30T05:38:20;11.30;99.90
32698;DHT22;19087;51.062;3.754;2024-01-30T05:40:49;11.30;99.90
32698;DHT22;19087;51.062;3.754;2024-01-30T05:43:19;11.30;99.90
32698;DHT22;19087;51.062;3.754;2024-01-30T05:45:46;11.30;99.90
32698;DHT22;19087;51.062;3.754;2024-01-30T05:48:13;11.40;99.90
32698;DHT22;19087;51.062;3.754;2024-01-30T05:50:42;11.40;99.90
32698;DHT22;19087;51.062;3.754;2024-01-30T05:53:09;11.40;99.90
32698;DHT22;19087;51.062;3.754;2024-01-30T05:55:37;11.40;99.90
32698;DHT22;19087;51.062;3.754;2024-01-30T05:58:02;11.60;99.90
32698;DHT22;19087;51.062;3.754;2024-01-30T06:00:32;11.70;99.90
32698;DHT22;19087;51.062;3.754;2024-01-30T06:02:58;11.80;99.90
32698;DHT22;19087;51.062;3.754;2024-01-30T06:05:23;11.70;99.90
32698;DHT22;19087;51.062;3.754;2024-01-30T06:07:51;11.70;99.90
32698;DHT22;19087;51.062;3.754;2024-01-30T06:10:20;11.60;99.90
32698;DHT22;19087;51.062;3.754;2024-01-30T06:12:47;11.50;99.90
32698;DHT22;19087;51.062;3.754;2024-01-30T06:15:13;11.70;99.90
32698;DHT22;19087;51.062;3.754;2024-01-30T06:17:39;11.70;99.90
32698;DHT22;19087;51.062;3.754;2024-01-30T06:20:07;11.70;99.90
32698;DHT22;19087;51.062;3.754;2024-01-30T06:22:32;11.80;99.90
32698;DHT22;19087;51.062;3.754;2024-01-30T06:25:03;11.80;99.90
32698;DHT22;19087;51.062;3.754;2024-01-30T06:27:35;11.60;99.90
32698;DHT22;19087;51.062;3.754;2024-01-30T06:30:11;11.70;99.90
32698;DHT22;19087;51.062;3.754;2024-01-30T06:32:37;11.60;99.90
32698;DHT22;19087;51.062;3.754;2024-01-30T06:35:05;11.60;99.90
32698;DHT22;19087;51.062;3.754;2024-01-30T06:37:36;11.70;99.90
32698;DHT22;19087;51.062;3.754;2024-01-30T06:40:03;11.80;99.90
32698;DHT22;19087;51.062;3.754;2024-01-30T06:42:31;11.90;99.90
32698;DHT22;19087;51.062;3.754;2024-01-30T06:44:56;11.80;99.90
32698;DHT22;19087;51.062;3.754;2024-01-30T06:47:26;11.70;99.90
32698;DHT22;19087;51.062;3.754;2024-01-30T06:49:52;11.60;99.90
32698;DHT22;19087;51.062;3.754;2024-01-30T06:52:19;11.60;99.90
32698;DHT22;19087;51.062;3.754;2024-01-30T06:54:48;11.60;99.90
32698;DHT22;19087;51.062;3.754;2024-01-30T06:57:17;11.60;99.90
32698;DHT22;19087;51.062;3.754;2024-01-30T06:59:43;11.60;99.90
32698;DHT22;19087;51.062;3.754;2024-01-30T07:02:15;11.60;99.90
32698;DHT22;19087;51.062;3.754;2024-01-30T07:04:44;11.60;99.90
32698;DHT22;19087;51.062;3.754;2024-01-30T07:07:37;11.70;99.90
32698;DHT22;19087;51.062;3.754;2024-01-30T07:10:05;11.70;99.90
32698;DHT22;19087;51.062;3.754;2024-01-30T07:12:32;11.80;99.90
32698;DHT22;19087;51.062;3.754;2024-01-30T07:15:01;11.80;99.90
32698;DHT22;19087;51.062;3.754;2024-01-30T07:17:28;11.90;99.90
32698;DHT22;19087;51.062;3.754;2024-01-30T07:19:57;11.90;99.90
32698;DHT22;19087;51.062;3.754;2024-01-30T07:22:25;11.90;99.90
32698;DHT22;19087;51.062;3.754;2024-01-30T07:24:57;12.00;99.90
32698;DHT22;19087;51.062;3.754;2024-01-30T07:27:23;11.90;99.90
32698;DHT22;19087;51.062;3.754;2024-01-30T07:29:49;11.90;99.90
32698;DHT22;19087;51.062;3.754;2024-01-30T07:32:16;11.90;99.90
32698;DHT22;19087;51.062;3.754;2024-01-30T07:34:41;11.90;99.90
32698;DHT22;19087;51.062;3.754;2024-01-30T07:37:10;11.90;99.90
32698;DHT22;19087;51.062;3.754;2024-01-30T07:39:41;12.00;99.90
32698;DHT22;19087;51.062;3.754;2024-01-30T07:42:08;12.00;99.90
32698;DHT22;19087;51.062;3.754;2024-01-30T07:44:34;12.10;99.90
32698;DHT22;19087;51.062;3.754;2024-01-30T07:47:00;12.10;99.90
32698;DHT22;19087;51.062;3.754;2024-01-30T07:49:26;12.00;99.90
32698;DHT22;19087;51.062;3.754;2024-01-30T07:51:52;12.10;99.90
32698;DHT22;19087;51.062;3.754;2024-01-30T07:54:18;12.10;99.90
32698;DHT22;19087;51.062;3.754;2024-01-30T07:56:44;12.00;99.90
32698;DHT22;19087;51.062;3.754;2024-01-30T07:59:11;12.10;99.90
32698;DHT22;19087;51.062;3.754;2024-01-30T08:01:39;12.00;99.90
32698;DHT22;19087;51.062;3.754;2024-01-30T08:04:14;12.00;99.90
32698;DHT22;19087;51.062;3.754;2024-01-30T08:06:40;12.00;99.90
32698;DHT22;19087;51.062;3.754;2024-01-30T08:09:06;12.10;99.90
32698;DHT22;19087;51.062;3.754;2024-01-30T08:11:34;12.00;99.90
32698;DHT22;19087;51.062;3.754;2024-01-30T08:14:01;12.10;99.90
32698;DHT22;19087;51.062;3.754;2024-01-30T08:16:28;12.00;99.90
32698;DHT22;19087;51.062;3.754;2024-01-30T08:18:58;12.20;99.90
32698;DHT22;19087;51.062;3.754;2024-01-30T08:21:27;12.20;99.90
32698;DHT22;19087;51.062;3.754;2024-01-30T08:23:53;12.20;99.90
32698;DHT22;19087;51.062;3.754;2024-01-30T08:26:19;12.10;99.90
32698;DHT22;19087;51.062;3.754;2024-01-30T08:28:46;12.00;99.90
32698;DHT22;19087;51.062;3.754;2024-01-30T08:31:15;12.20;99.90
32698;DHT22;19087;51.062;3.754;2024-01-30T08:33:41;12.40;99.90
32698;DHT22;19087;51.062;3.754;2024-01-30T08:36:07;12.60;99.90
32698;DHT22;19087;51.062;3.754;2024-01-30T08:38:37;12.60;99.90
32698;DHT22;19087;51.062;3.754;2024-01-30T08:41:03;12.50;99.90
32698;DHT22;19087;51.062;3.754;2024-01-30T08:43:35;12.50;99.90
32698;DHT22;19087;51.062;3.754;2024-01-30T08:46:02;12.50;99.90
32698;DHT22;19087;51.062;3.754;2024-01-30T08:48:29;12.50;99.90
32698;DHT22;19087;51.062;3.754;2024-01-30T08:51:01;12.50;99.90
32698;DHT22;19087;51.062;3.754;2024-01-30T08:53:30;12.60;99.90
32698;DHT22;19087;51.062;3.754;2024-01-30T08:55:57;12.60;99.90
32698;DHT22;19087;51.062;3.754;2024-01-30T08:58:28;12.70;99.90
32698;DHT22;19087;51.062;3.754;2024-01-30T09:00:53;12.60;99.90
32698;DHT22;19087;51.062;3.754;2024-01-30T09:03:22;12.40;99.90
32698;DHT22;19087;51.062;3.754;2024-01-30T09:05:49;12.20;99.90
32698;DHT22;19087;51.062;3.754;2024-01-30T09:08:14;12.30;99.90
32698;DHT22;19087;51.062;3.754;2024-01-30T09:10:43;12.60;99.90
32698;DHT22;19087;51.062;3.754;2024-01-30T09:13:21;13.00;99.90
32698;DHT22;19087;51.062;3.754;2024-01-30T09:15:47;13.20;99.90
32698;DHT22;19087;51.062;3.754;2024-01-30T09:18:14;13.20;99.90
32698;DHT22;19087;51.062;3.754;2024-01-30T09:20:40;13.20;99.90
32698;DHT22;19087;51.062;3.754;2024-01-30T09:23:05;13.10;99.90
32698;DHT22;19087;51.062;3.754;2024-01-30T09:25:31;13.10;99.90
32698;DHT22;19087;51.062;3.754;2024-01-30T09:28:08;13.00;99.90
32698;DHT22;19087;51.062;3.754;2024-01-30T09:30:34;12.90;99.90
32698;DHT22;19087;51.062;3.754;2024-01-30T09:33:12;13.10;99.90
32698;DHT22;19087;51.062;3.754;2024-01-30T09:35:56;12.90;99.90
32698;DHT22;19087;51.062;3.754;2024-01-30T09:38:25;13.00;99.90
32698;DHT22;19087;51.062;3.754;2024-01-30T09:40:54;13.10;99.90
32698;DHT22;19087;51.062;3.754;2024-01-30T09:43:33;13.10;99.90
32698;DHT22;19087;51.062;3.754;2024-01-30T09:46:03;13.10;99.90
32698;DHT22;19087;51.062;3.754;2024-01-30T09:48:33;13.00;99.90
32698;DHT22;19087;51.062;3.754;2024-01-30T09:51:03;13.00;99.90
32698;DHT22;19087;51.062;3.754;2024-01-30T09:53:30;13.20;99.90
32698;DHT22;19087;51.062;3.754;2024-01-30T09:56:01;13.20;99.90
32698;DHT22;19087;51.062;3.754;2024-01-30T09:58:30;12.90;99.90
32698;DHT22;19087;51.062;3.754;2024-01-30T10:00:56;12.90;99.90
32698;DHT22;19087;51.062;3.754;2024-01-30T10:03:26;12.90;99.90
32698;DHT22;19087;51.062;3.754;2024-01-30T10:05:52;12.80;99.90
32698;DHT22;19087;51.062;3.754;2024-01-30T10:08:21;12.70;99.90
32698;DHT22;19087;51.062;3.754;2024-01-30T10:10:49;12.50;99.90
32698;DHT22;19087;51.062;3.754;2024-01-30T10:13:19;12.40;99.90
32698;DHT22;19087;51.062;3.754;2024-01-30T10:15:53;12.30;99.90
32698;DHT22;19087;51.062;3.754;2024-01-30T10:18:25;12.40;99.90
32698;DHT22;19087;51.062;3.754;2024-01-30T10:20:52;12.40;99.90
32698;DHT22;19087;51.062;3.754;2024-01-30T10:23:24;12.40;99.90
32698;DHT22;19087;51.062;3.754;2024-01-30T10:25:54;12.40;99.90
32698;DHT22;19087;51.062;3.754;2024-01-30T10:28:20;12.30;99.90
32698;DHT22;19087;51.062;3.754;2024-01-30T10:30:57;12.50;99.90
32698;DHT22;19087;51.062;3.754;2024-01-30T10:33:26;12.60;99.90
32698;DHT22;19087;51.062;3.754;2024-01-30T10:36:03;12.90;99.90
32698;DHT22;19087;51.062;3.754;2024-01-30T10:38:37;12.90;99.90
32698;DHT22;19087;51.062;3.754;2024-01-30T10:41:07;12.90;99.90
32698;DHT22;19087;51.062;3.754;2024-01-30T10:43:36;13.00;99.90
32698;DHT22;19087;51.062;3.754;2024-01-30T10:46:19;13.00;99.90
32698;DHT22;19087;51.062;3.754;2024-01-30T10:48:58;13.00;99.90
32698;DHT22;19087;51.062;3.754;2024-01-30T10:51:26;13.00;99.90
32698;DHT22;19087;51.062;3.754;2024-01-30T10:53:53;12.90;99.90
32698;DHT22;19087;51.062;3.754;2024-01-30T10:56:23;13.00;99.90
32698;DHT22;19087;51.062;3.754;2024-01-30T10:58:53;12.90;99.90
32698;DHT22;19087;51.062;3.754;2024-01-30T11:01:23;12.90;99.90
32698;DHT22;19087;51.062;3.754;2024-01-30T11:03:52;12.80;99.90
32698;DHT22;19087;51.062;3.754;2024-01-30T11:06:22;13.00;99.90
32698;DHT22;19087;51.062;3.754;2024-01-30T11:09:05;13.20;99.90
32698;DHT22;19087;51.062;3.754;2024-01-30T11:12:01;13.10;99.90
32698;DHT22;19087;51.062;3.754;2024-01-30T11:14:40;13.00;99.90
32698;DHT22;19087;51.062;3.754;2024-01-30T11:17:09;13.20;99.90
32698;DHT22;19087;51.062;3.754;2024-01-30T11:19:38;13.30;99.90
32698;DHT22;19087;51.062;3.754;2024-01-30T11:22:07;13.20;99.90
32698;DHT22;19087;51.062;3.754;2024-01-30T11:24:47;13.20;99.90
32698;DHT22;19087;51.062;3.754;2024-01-30T11:27:20;13.20;99.90
32698;DHT22;19087;51.062;3.754;2024-01-30T11:29:51;13.30;99.90
32698;DHT22;19087;51.062;3.754;2024-01-30T11:32:22;13.30;99.90
32698;DHT22;19087;51.062;3.754;2024-01-30T11:34:52;13.30;99.90
32698;DHT22;19087;51.062;3.754;2024-01-30T11:37:20;13.20;99.90
32698;DHT22;19087;51.062;3.754;2024-01-30T11:39:48;13.20;99.90
32698;DHT22;19087;51.062;3.754;2024-01-30T11:42:16;13.10;99.90
32698;DHT22;19087;51.062;3.754;2024-01-30T11:44:47;13.20;99.90
32698;DHT22;19087;51.062;3.754;2024-01-30T11:47:14;13.10;99.90
32698;DHT22;19087;51.062;3.754;2024-01-30T11:49:45;13.10;99.90
32698;DHT22;19087;51.062;3.754;2024-01-30T11:52:13;13.00;99.90
32698;DHT22;19087;51.062;3.754;2024-01-30T11:54:43;12.90;99.90
32698;DHT22;19087;51.062;3.754;2024-01-30T11:57:10;12.60;99.90
32698;DHT22;19087;51.062;3.754;2024-01-30T11:59:39;12.70;99.90
32698;DHT22;19087;51.062;3.754;2024-01-30T12:02:08;12.60;99.90
32698;DHT22;19087;51.062;3.754;2024-01-30T12:04:34;12.60;99.90
32698;DHT22;19087;51.062;3.754;2024-01-30T12:07:00;12.40;99.90
32698;DHT22;19087;51.062;3.754;2024-01-30T12:09:28;12.20;99.90
32698;DHT22;19087;51.062;3.754;2024-01-30T12:11:54;12.20;99.90
32698;DHT22;19087;51.062;3.754;2024-01-30T12:14:20;12.30;99.90
32698;DHT22;19087;51.062;3.754;2024-01-30T12:16:49;12.30;99.90
32698;DHT22;19087;51.062;3.754;2024-01-30T12:19:24;12.20;99.90
32698;DHT22;19087;51.062;3.754;2024-01-30T12:21:58;12.20;99.90
32698;DHT22;19087;51.062;3.754;2024-01-30T12:24:27;12.10;99.90
32698;DHT22;19087;51.062;3.754;2024-01-30T12:26:57;11.90;99.90
32698;DHT22;19087;51.062;3.754;2024-01-30T12:29:23;11.90;99.90
32698;DHT22;19087;51.062;3.754;2024-01-30T12:31:53;12.00;99.90
32698;DHT22;19087;51.062;3.754;2024-01-30T12:34:19;12.00;99.90
32698;DHT22;19087;51.062;3.754;2024-01-30T12:36:47;12.00;99.90
32698;DHT22;19087;51.062;3.754;2024-01-30T12:39:14;12.00;99.90
32698;DHT22;19087;51.062;3.754;2024-01-30T12:41:40;11.80;99.90
32698;DHT22;19087;51.062;3.754;2024-01-30T12:44:07;11.70;99.90
32698;DHT22;19087;51.062;3.754;2024-01-30T12:46:34;11.60;99.90
32698;DHT22;19087;51.062;3.754;2024-01-30T12:49:00;11.60;99.90
32698;DHT22;19087;51.062;3.754;2024-01-30T12:51:26;11.70;99.90
32698;DHT22;19087;51.062;3.754;2024-01-30T12:53:52;11.80;99.90
32698;DHT22;19087;51.062;3.754;2024-01-30T12:56:20;11.60;99.90
32698;DHT22;19087;51.062;3.754;2024-01-30T12:58:48;11.70;99.90
32698;DHT22;19087;51.062;3.754;2024-01-30T13:01:17;11.80;99.90
32698;DHT22;19087;51.062;3.754;2024-01-30T13:03:43;11.80;99.90
32698;DHT22;19087;51.062;3.754;2024-01-30T13:06:11;11.80;99.90
32698;DHT22;19087;51.062;3.754;2024-01-30T13:08:39;11.80;99.90
32698;DHT22;19087;51.062;3.754;2024-01-30T13:11:05;11.80;99.90
32698;DHT22;19087;51.062;3.754;2024-01-30T13:13:33;11.80;99.90
32698;DHT22;19087;51.062;3.754;2024-01-30T13:16:00;11.80;99.90
32698;DHT22;19087;51.062;3.754;2024-01-30T13:18:27;11.70;99.90
32698;DHT22;19087;51.062;3.754;2024-01-30T13:20:53;11.70;99.90
32698;DHT22;19087;51.062;3.754;2024-01-30T13:23:19;11.50;99.90
32698;DHT22;19087;51.062;3.754;2024-01-30T13:25:48;11.60;99.90
32698;DHT22;19087;51.062;3.754;2024-01-30T13:28:14;11.50;99.90
32698;DHT22;19087;51.062;3.754;2024-01-30T13:30:40;11.60;99.90
32698;DHT22;19087;51.062;3.754;2024-01-30T13:33:07;11.60;99.90
32698;DHT22;19087;51.062;3.754;2024-01-30T13:35:34;11.50;99.90
32698;DHT22;19087;51.062;3.754;2024-01-30T13:38:03;11.50;99.90
32698;DHT22;19087;51.062;3.754;2024-01-30T13:40:32;11.50;99.90
32698;DHT22;19087;51.062;3.754;2024-01-30T13:42:58;11.60;99.90
32698;DHT22;19087;51.062;3.754;2024-01-30T13:45:24;11.50;99.90
32698;DHT22;19087;51.062;3.754;2024-01-30T13:47:49;11.40;99.90
32698;DHT22;19087;51.062;3.754;2024-01-30T13:50:16;11.40;99.90
32698;DHT22;19087;51.062;3.754;2024-01-30T13:52:43;11.50;99.90
32698;DHT22;19087;51.062;3.754;2024-01-30T13:55:09;11.50;99.90
32698;DHT22;19087;51.062;3.754;2024-01-30T13:57:37;11.50;99.90
32698;DHT22;19087;51.062;3.754;2024-01-30T14:00:05;11.60;99.90
32698;DHT22;19087;51.062;3.754;2024-01-30T14:02:32;11.60;99.90
32698;DHT22;19087;51.062;3.754;2024-01-30T14:05:03;11.50;99.90
32698;DHT22;19087;51.062;3.754;2024-01-30T14:07:32;11.40;99.90
32698;DHT22;19087;51.062;3.754;2024-01-30T14:10:01;11.40;99.90
32698;DHT22;19087;51.062;3.754;2024-01-30T14:12:28;11.20;99.90
32698;DHT22;19087;51.062;3.754;2024-01-30T14:14:55;11.20;99.90
32698;DHT22;19087;51.062;3.754;2024-01-30T14:17:22;11.20;99.90
32698;DHT22;19087;51.062;3.754;2024-01-30T14:19:48;11.30;99.90
32698;DHT22;19087;51.062;3.754;2024-01-30T14:22:14;11.30;99.90
32698;DHT22;19087;51.062;3.754;2024-01-30T14:24:41;11.40;99.90
32698;DHT22;19087;51.062;3.754;2024-01-30T14:27:07;11.30;99.90
32698;DHT22;19087;51.062;3.754;2024-01-30T14:29:34;11.40;99.90
32698;DHT22;19087;51.062;3.754;2024-01-30T14:32:00;11.30;99.90
32698;DHT22;19087;51.062;3.754;2024-01-30T14:34:25;11.10;99.90
32698;DHT22;19087;51.062;3.754;2024-01-30T14:36:51;11.00;99.90
32698;DHT22;19087;51.062;3.754;2024-01-30T14:39:22;10.90;99.90
32698;DHT22;19087;51.062;3.754;2024-01-30T14:41:49;11.00;99.90
32698;DHT22;19087;51.062;3.754;2024-01-30T14:44:15;11.00;99.90
32698;DHT22;19087;51.062;3.754;2024-01-30T14:46:43;10.80;99.90
32698;DHT22;19087;51.062;3.754;2024-01-30T14:49:13;10.80;99.90
32698;DHT22;19087;51.062;3.754;2024-01-30T14:51:42;10.80;99.90
32698;DHT22;19087;51.062;3.754;2024-01-30T14:54:08;10.80;99.90
32698;DHT22;19087;51.062;3.754;2024-01-30T14:56:34;10.90;99.90
32698;DHT22;19087;51.062;3.754;2024-01-30T14:59:02;11.00;99.90
32698;DHT22;19087;51.062;3.754;2024-01-30T15:01:28;10.80;99.90
32698;DHT22;19087;51.062;3.754;2024-01-30T15:03:54;10.80;99.90
32698;DHT22;19087;51.062;3.754;2024-01-30T15:06:21;10.90;99.90
32698;DHT22;19087;51.062;3.754;2024-01-30T15:08:52;11.00;99.90
32698;DHT22;19087;51.062;3.754;2024-01-30T15:11:19;11.00;99.90
32698;DHT22;19087;51.062;3.754;2024-01-30T15:13:46;10.70;99.90
32698;DHT22;19087;51.062;3.754;2024-01-30T15:16:12;10.80;99.90
32698;DHT22;19087;51.062;3.754;2024-01-30T15:18:40;10.80;99.90
32698;DHT22;19087;51.062;3.754;2024-01-30T15:21:14;10.90;99.90
32698;DHT22;19087;51.062;3.754;2024-01-30T15:23:45;10.80;99.90
32698;DHT22;19087;51.062;3.754;2024-01-30T15:26:11;10.80;99.90
32698;DHT22;19087;51.062;3.754;2024-01-30T15:28:38;10.80;99.90
32698;DHT22;19087;51.062;3.754;2024-01-30T15:31:05;10.80;99.90
32698;DHT22;19087;51.062;3.754;2024-01-30T15:33:35;10.90;99.90
32698;DHT22;19087;51.062;3.754;2024-01-30T15:36:03;10.80;99.90